createdAt,value
2023-03-07T00:00:33.092Z,14.87
2023-03-07T00:04:37.370Z,16.13
2023-03-07T00:08:40.036Z,14.97
2023-03-07T00:12:42.903Z,16.47
2023-03-07T00:16:45.706Z,15.13
2023-03-07T00:20:59.187Z,16.17
2023-03-07T00:25:01.926Z,15.07
2023-03-07T00:29:04.590Z,16.53
2023-03-07T00:33:07.190Z,16.20
2023-03-07T00:37:11.225Z,15.90
2023-03-07T00:41:15.690Z,17.40
2023-03-07T00:45:18.363Z,16.67
2023-03-07T00:49:21.111Z,17.10
2023-03-07T00:53:25.850Z,16.87
2023-03-07T00:57:28.486Z,17.70
2023-03-07T01:01:31.199Z,16.47
2023-03-07T01:05:33.991Z,16.30
2023-03-07T01:09:37.996Z,16.20
2023-03-07T01:13:40.799Z,17.37
2023-03-07T01:17:43.430Z,16.83
2023-03-07T01:21:46.396Z,15.33
2023-03-07T01:25:50.399Z,16.53
2023-03-07T01:29:53.048Z,15.07
2023-03-07T01:33:58.415Z,15.23
2023-03-07T01:38:01.335Z,14.13
2023-03-07T01:42:06.201Z,14.73
2023-03-07T01:46:38.378Z,15.30
2023-03-07T01:50:41.517Z,16.47
2023-03-07T01:54:48.914Z,13.83
2023-03-07T01:58:54.855Z,14.63
2023-03-07T02:03:03.203Z,16.63
2023-03-07T02:07:06.665Z,15.60
2023-03-07T02:11:09.608Z,14.60
2023-03-07T02:15:15.372Z,13.53
2023-03-07T02:19:30.446Z,13.40
2023-03-07T02:23:39.317Z,15.97
2023-03-07T02:27:50.280Z,14.30
2023-03-07T02:31:53.117Z,13.73
2023-03-07T02:35:58.249Z,14.57
2023-03-07T02:40:06.330Z,18.57
2023-03-07T02:44:10.347Z,14.77
2023-03-07T02:48:16.130Z,15.07
2023-03-07T02:52:18.796Z,14.87
2023-03-07T02:56:21.640Z,14.77
2023-03-07T03:00:25.704Z,17.93
2023-03-07T03:04:28.360Z,18.17
2023-03-07T03:08:31.029Z,17.17
2023-03-07T03:12:33.699Z,14.73
2023-03-07T03:16:38.509Z,14.70
2023-03-07T03:20:41.211Z,14.83
2023-03-07T03:24:43.935Z,16.50
2023-03-07T03:28:46.850Z,17.40
2023-03-07T03:32:51.127Z,17.13
2023-03-07T03:36:53.828Z,16.50
2023-03-07T03:40:56.480Z,16.50
2023-03-07T03:44:59.144Z,16.23
2023-03-07T03:49:03.476Z,15.60
2023-03-07T03:53:06.401Z,15.27
2023-03-07T03:57:09.032Z,15.43
2023-03-07T04:01:14.065Z,14.50
2023-03-07T04:05:19.073Z,17.40
2023-03-07T04:09:21.702Z,15.93
2023-03-07T04:13:24.611Z,15.60
2023-03-07T04:17:27.293Z,15.30
2023-03-07T04:21:31.536Z,15.80
2023-03-07T04:25:34.247Z,15.90
2023-03-07T04:29:37.210Z,15.67
2023-03-07T04:33:40.063Z,15.33
2023-03-07T04:37:44.608Z,15.10
2023-03-07T04:41:47.557Z,14.37
2023-03-07T04:45:50.411Z,17.00
2023-03-07T04:49:53.075Z,16.67
2023-03-07T04:53:57.105Z,14.13
2023-03-07T04:58:00.337Z,14.77
2023-03-07T05:02:03.039Z,13.50
2023-03-07T05:06:07.582Z,13.47
2023-03-07T05:10:13.047Z,15.57
2023-03-07T05:14:15.960Z,12.67
2023-03-07T05:18:18.940Z,12.33
2023-03-07T05:22:22.020Z,12.67
2023-03-07T05:26:26.031Z,12.53
2023-03-07T05:30:29.171Z,15.03
2023-03-07T05:34:31.907Z,12.73
2023-03-07T05:38:34.574Z,12.53
2023-03-07T05:42:41.595Z,12.43
2023-03-07T05:46:44.524Z,11.47
2023-03-07T05:50:47.147Z,12.50
2023-03-07T05:54:51.417Z,12.60
2023-03-07T05:58:55.812Z,13.13
2023-03-07T06:02:58.618Z,12.33
2023-03-07T06:07:04.176Z,13.17
2023-03-07T06:11:07.531Z,12.13
2023-03-07T06:15:12.620Z,12.67
2023-03-07T06:19:15.684Z,12.87
2023-03-07T06:23:18.501Z,12.43
2023-03-07T06:27:21.186Z,13.23
2023-03-07T06:31:25.616Z,13.23
2023-03-07T06:35:28.592Z,13.27
2023-03-07T06:39:33.253Z,15.23
2023-03-07T06:43:36.291Z,14.47
2023-03-07T06:47:41.201Z,14.07
2023-03-07T06:51:44.252Z,15.70
2023-03-07T06:55:51.590Z,15.47
2023-03-07T06:59:54.530Z,13.07
2023-03-07T07:03:58.780Z,13.87
2023-03-07T07:08:01.416Z,15.33
2023-03-07T07:12:05.303Z,13.50
2023-03-07T07:16:09.396Z,13.90
2023-03-07T07:20:15.873Z,13.00
2023-03-07T07:24:18.825Z,13.40
2023-03-07T07:28:21.574Z,15.67
2023-03-07T07:32:25.900Z,12.97
2023-03-07T07:36:30.668Z,13.50
2023-03-07T07:40:33.368Z,14.10
2023-03-07T07:44:36.189Z,12.07
2023-03-07T07:48:40.898Z,13.60
2023-03-07T07:52:44.981Z,12.87
2023-03-07T07:56:47.693Z,12.57
2023-03-07T08:00:50.453Z,11.27
2023-03-07T08:04:53.290Z,12.07
2023-03-07T08:09:00.020Z,7.60
2023-03-07T08:13:02.703Z,9.60
2023-03-07T08:17:05.577Z,10.07
2023-03-07T08:21:08.660Z,10.97
2023-03-07T08:25:18.441Z,11.87
2023-03-07T08:29:21.078Z,10.27
2023-03-07T08:33:23.986Z,9.73
2023-03-07T08:37:26.699Z,10.37
2023-03-07T08:41:30.849Z,9.53
2023-03-07T08:45:33.520Z,10.37
2023-03-07T08:49:36.227Z,10.03
2023-03-07T08:53:42.904Z,10.60
2023-03-07T08:57:47.511Z,10.77
2023-03-07T09:01:50.456Z,10.07
2023-03-07T09:05:53.124Z,9.83
2023-03-07T09:09:56.022Z,8.80
2023-03-07T09:14:00.139Z,9.07
2023-03-07T09:18:02.799Z,8.67
2023-03-07T09:22:05.729Z,8.20
2023-03-07T09:26:08.405Z,8.70
2023-03-07T09:30:15.156Z,9.20
2023-03-07T09:34:18.241Z,9.37
2023-03-07T09:38:20.936Z,9.37
2023-03-07T09:42:28.357Z,8.83
2023-03-07T09:46:38.484Z,8.47
2023-03-07T09:50:47.613Z,9.70
2023-03-07T09:54:56.611Z,10.10
2023-03-07T09:59:08.559Z,10.00
2023-03-07T10:03:26.079Z,9.30
2023-03-07T10:07:29.572Z,8.53
2023-03-07T10:12:18.178Z,8.37
2023-03-07T10:16:26.279Z,7.83
2023-03-07T10:20:37.444Z,8.03
2023-03-07T10:24:51.694Z,8.67
2023-03-07T10:28:54.493Z,9.23
2023-03-07T10:32:58.473Z,8.77
2023-03-07T10:37:09.029Z,7.83
2023-03-07T10:41:15.719Z,13.50
2023-03-07T10:45:18.798Z,8.30
2023-03-07T10:49:26.438Z,7.40
2023-03-07T10:53:33.228Z,7.27
2023-03-07T10:57:35.905Z,6.70
2023-03-07T11:01:40.023Z,6.57
2023-03-07T11:05:48.569Z,7.27
2023-03-07T11:09:52.870Z,9.37
2023-03-07T11:14:14.058Z,6.43
2023-03-07T11:18:28.648Z,5.83
2023-03-07T11:22:33.706Z,6.73
2023-03-07T11:26:41.124Z,7.27
2023-03-07T11:30:46.800Z,6.03
2023-03-07T11:34:53.648Z,5.83
2023-03-07T11:39:01.204Z,6.30
2023-03-07T11:43:14.896Z,6.00
2023-03-07T11:47:30.709Z,7.03
2023-03-07T11:51:45.522Z,6.47
2023-03-07T11:55:55.245Z,7.90
2023-03-07T12:00:18.093Z,7.00
2023-03-07T12:04:48.978Z,5.70
2023-03-07T12:09:05.081Z,6.17
2023-03-07T12:13:13.876Z,5.67
2023-03-07T12:17:29.707Z,5.60
2023-03-07T12:21:47.733Z,5.53
2023-03-07T12:25:52.752Z,5.63
2023-03-07T12:29:58.749Z,5.87
2023-03-07T12:34:05.757Z,4.93
2023-03-07T12:38:11.279Z,7.17
2023-03-07T12:42:18.949Z,5.90
2023-03-07T12:46:26.026Z,5.33
2023-03-07T12:50:33.370Z,5.10
2023-03-07T12:54:38.209Z,5.27
2023-03-07T12:58:45.918Z,5.00
2023-03-07T13:02:53.053Z,5.13
2023-03-07T13:07:03.468Z,4.77
2023-03-07T13:11:06.925Z,6.27
2023-03-07T13:16:02.485Z,4.73
2023-03-07T13:20:12.192Z,5.10
2023-03-07T13:24:35.386Z,5.23
2023-03-07T13:28:51.181Z,5.27
2023-03-07T13:33:00.055Z,5.87
2023-03-07T13:37:48.816Z,7.60
2023-03-07T13:41:52.076Z,5.00
2023-03-07T13:45:56.704Z,5.83
2023-03-07T13:50:38.733Z,5.90
2023-03-07T13:54:41.915Z,5.83
2023-03-07T13:58:48.131Z,6.37
2023-03-07T14:02:51.107Z,5.90
2023-03-07T14:06:58.227Z,5.43
2023-03-07T14:11:01.642Z,5.60
2023-03-07T14:15:16.207Z,5.30
2023-03-07T14:19:35.030Z,5.53
2023-03-07T14:24:00.905Z,6.97
2023-03-07T14:28:06.242Z,5.83
2023-03-07T14:32:22.131Z,5.20
2023-03-07T14:36:27.107Z,6.07
2023-03-07T14:40:37.661Z,7.23
2023-03-07T14:45:01.829Z,7.03
2023-03-07T14:49:10.616Z,6.63
2023-03-07T14:53:17.365Z,6.17
2023-03-07T14:57:27.664Z,5.77
2023-03-07T15:01:33.273Z,5.57
2023-03-07T15:05:38.296Z,6.47
2023-03-07T15:09:41.225Z,7.40
2023-03-07T15:13:47.927Z,6.57
2023-03-07T15:17:51.131Z,5.77
2023-03-07T15:21:57.725Z,5.60
2023-03-07T15:26:04.910Z,6.60
2023-03-07T15:30:22.795Z,5.93
2023-03-07T15:34:27.135Z,7.43
2023-03-07T15:38:30.059Z,6.60
2023-03-07T15:42:32.975Z,5.80
2023-03-07T15:46:39.239Z,6.27
2023-03-07T15:50:42.758Z,6.60
2023-03-07T15:54:45.472Z,9.47
2023-03-07T15:58:48.539Z,6.30
2023-03-07T16:02:52.719Z,6.63
2023-03-07T16:06:55.430Z,7.33
2023-03-07T16:11:01.163Z,7.87
2023-03-07T16:15:04.520Z,6.47
2023-03-07T16:19:10.181Z,6.97
2023-03-07T16:23:14.010Z,11.90
2023-03-07T16:27:18.498Z,6.70
2023-03-07T16:31:21.693Z,11.83
2023-03-07T16:35:27.399Z,7.83
2023-03-07T16:39:31.570Z,10.00
2023-03-07T16:43:36.244Z,8.77
2023-03-07T16:47:38.958Z,6.80
2023-03-07T16:51:43.017Z,5.60
2023-03-07T16:55:49.349Z,5.90
2023-03-07T16:59:52.274Z,5.83
2023-03-07T17:03:56.314Z,6.23
2023-03-07T17:08:02.994Z,6.40
2023-03-07T17:12:08.910Z,6.40
2023-03-07T17:16:13.702Z,6.13
2023-03-07T17:20:21.219Z,7.03
2023-03-07T17:24:25.295Z,9.40
2023-03-07T17:28:27.935Z,6.37
2023-03-07T17:32:30.674Z,7.40
2023-03-07T17:36:33.481Z,6.87
2023-03-07T17:40:38.629Z,6.90
2023-03-07T17:44:43.964Z,6.43
2023-03-07T17:48:46.587Z,8.27
2023-03-07T17:52:49.237Z,8.40
2023-03-07T17:56:53.373Z,6.97
2023-03-07T18:00:56.047Z,6.30
2023-03-07T18:05:00.225Z,6.87
2023-03-07T18:09:05.132Z,6.40
2023-03-07T18:13:09.822Z,6.70
2023-03-07T18:17:12.717Z,7.63
2023-03-07T18:21:22.013Z,6.87
2023-03-07T18:25:25.703Z,7.70
2023-03-07T18:29:41.023Z,7.93
2023-03-07T18:33:44.165Z,7.63
2023-03-07T18:37:46.943Z,5.80
2023-03-07T18:41:50.179Z,6.83
2023-03-07T18:45:56.788Z,7.63
2023-03-07T18:49:59.409Z,6.53
2023-03-07T18:54:03.586Z,8.70
2023-03-07T18:58:07.385Z,7.03
2023-03-07T19:02:13.955Z,7.67
2023-03-07T19:06:17.879Z,7.17
2023-03-07T19:10:20.794Z,7.37
2023-03-07T19:14:23.444Z,8.33
2023-03-07T19:18:28.959Z,9.50
2023-03-07T19:22:31.696Z,7.40
2023-03-07T19:26:34.808Z,6.43
2023-03-07T19:30:39.000Z,7.13
2023-03-07T19:34:42.997Z,9.20
2023-03-07T19:38:45.835Z,7.03
2023-03-07T19:42:48.734Z,7.97
2023-03-07T19:46:51.466Z,7.50
2023-03-07T19:50:55.535Z,10.97
2023-03-07T19:54:58.260Z,7.33
2023-03-07T19:59:02.602Z,8.03
2023-03-07T20:03:05.704Z,10.37
2023-03-07T20:07:09.987Z,9.57
2023-03-07T20:11:19.173Z,10.20
2023-03-07T20:15:22.221Z,7.83
2023-03-07T20:19:27.748Z,7.67
2023-03-07T20:23:32.128Z,7.63
2023-03-07T20:27:34.818Z,7.33
2023-03-07T20:31:39.148Z,6.03
2023-03-07T20:35:41.917Z,6.87
2023-03-07T20:39:46.125Z,7.33
2023-03-07T20:43:49.414Z,6.67
2023-03-07T20:47:52.410Z,7.03
2023-03-07T20:51:55.108Z,6.77
2023-03-07T20:56:03.010Z,7.57
2023-03-07T21:00:06.837Z,7.70
2023-03-07T21:04:12.236Z,6.50
2023-03-07T21:08:16.402Z,8.33
2023-03-07T21:12:20.841Z,6.07
2023-03-07T21:16:25.176Z,7.27
2023-03-07T21:20:28.166Z,7.17
2023-03-07T21:24:30.811Z,6.47
2023-03-07T21:28:35.964Z,8.47
2023-03-07T21:32:38.747Z,6.47
2023-03-07T21:36:45.923Z,6.10
2023-03-07T21:40:48.746Z,6.43
2023-03-07T21:44:52.769Z,5.90
2023-03-07T21:48:55.455Z,6.60
2023-03-07T21:52:58.427Z,8.50
2023-03-07T21:57:03.978Z,7.77
2023-03-07T22:01:14.182Z,6.43
2023-03-07T22:05:17.395Z,6.70
2023-03-07T22:09:21.091Z,7.17
2023-03-07T22:13:23.758Z,7.60
2023-03-07T22:17:28.071Z,6.87
2023-03-07T22:21:31.074Z,7.13
2023-03-07T22:25:34.720Z,7.37
2023-03-07T22:29:37.666Z,6.57
2023-03-07T22:33:42.147Z,6.17
2023-03-07T22:37:44.806Z,7.17
2023-03-07T22:41:47.508Z,6.83
2023-03-07T22:45:50.876Z,7.70
2023-03-07T22:49:54.922Z,6.77
2023-03-07T22:53:57.909Z,6.77
2023-03-07T22:58:00.823Z,7.30
2023-03-07T23:02:03.498Z,7.03
2023-03-07T23:06:07.890Z,6.47
2023-03-07T23:10:12.062Z,8.07
2023-03-07T23:14:18.587Z,7.57
2023-03-07T23:18:21.282Z,8.90
2023-03-07T23:22:27.381Z,7.07
2023-03-07T23:26:31.557Z,6.43
2023-03-07T23:30:36.697Z,6.77
2023-03-07T23:34:39.364Z,7.67
2023-03-07T23:38:44.741Z,7.13
2023-03-07T23:42:47.342Z,7.43
2023-03-07T23:46:50.422Z,6.70
2023-03-07T23:50:53.064Z,7.30
2023-03-07T23:54:57.331Z,7.30
2023-03-07T23:59:00.144Z,8.80
